sensor_id;sensor_type;location;lat;lon;timestamp;temperature;humidity
6986;DHT22;3533;51.246;6.850;2023-02-22T00:00:22;18.90;42.70
6986;DHT22;3533;51.246;6.850;2023-02-22T00:02:56;18.90;42.70
6986;DHT22;3533;51.246;6.850;2023-02-22T00:05:27;18.90;42.70
6986;DHT22;3533;51.246;6.850;2023-02-22T00:07:54;18.90;42.70
6986;DHT22;3533;51.246;6.850;2023-02-22T00:10:23;18.90;42.70
6986;DHT22;3533;51.246;6.850;2023-02-22T00:12:50;18.90;42.70
6986;DHT22;3533;51.246;6.850;2023-02-22T00:15:20;18.90;42.70
6986;DHT22;3533;51.246;6.850;2023-02-22T00:17:46;18.90;42.70
6986;DHT22;3533;51.246;6.850;2023-02-22T00:20:13;18.90;42.70
6986;DHT22;3533;51.246;6.850;2023-02-22T00:22:43;18.90;42.70
6986;DHT22;3533;51.246;6.850;2023-02-22T00:25:12;18.90;42.70
6986;DHT22;3533;51.246;6.850;2023-02-22T00:27:38;18.90;42.70
6986;DHT22;3533;51.246;6.850;2023-02-22T00:30:05;18.90;43.50
6986;DHT22;3533;51.246;6.850;2023-02-22T00:32:31;18.90;42.70
6986;DHT22;3533;51.246;6.850;2023-02-22T00:34:57;18.90;42.70
6986;DHT22;3533;51.246;6.850;2023-02-22T00:37:23;18.90;42.70
6986;DHT22;3533;51.246;6.850;2023-02-22T00:39:49;18.90;42.70
6986;DHT22;3533;51.246;6.850;2023-02-22T00:42:16;18.90;42.70
6986;DHT22;3533;51.246;6.850;2023-02-22T00:44:43;18.90;42.70
6986;DHT22;3533;51.246;6.850;2023-02-22T00:47:09;18.90;42.70
6986;DHT22;3533;51.246;6.850;2023-02-22T00:49:34;18.90;42.80
6986;DHT22;3533;51.246;6.850;2023-02-22T00:52:00;18.90;42.70
6986;DHT22;3533;51.246;6.850;2023-02-22T00:54:26;18.90;42.70
6986;DHT22;3533;51.246;6.850;2023-02-22T00:56:52;18.90;42.80
6986;DHT22;3533;51.246;6.850;2023-02-22T00:59:17;18.90;42.70
6986;DHT22;3533;51.246;6.850;2023-02-22T01:01:43;18.90;42.70
6986;DHT22;3533;51.246;6.850;2023-02-22T01:04:08;18.90;42.70
6986;DHT22;3533;51.246;6.850;2023-02-22T01:06:34;18.90;42.80
6986;DHT22;3533;51.246;6.850;2023-02-22T01:09:00;18.90;42.70
6986;DHT22;3533;51.246;6.850;2023-02-22T01:11:27;18.90;42.70
6986;DHT22;3533;51.246;6.850;2023-02-22T01:13:53;18.90;42.70
6986;DHT22;3533;51.246;6.850;2023-02-22T01:16:19;18.90;42.80
6986;DHT22;3533;51.246;6.850;2023-02-22T01:18:45;18.90;42.80
6986;DHT22;3533;51.246;6.850;2023-02-22T01:21:11;18.90;42.80
6986;DHT22;3533;51.246;6.850;2023-02-22T01:23:37;18.90;42.70
6986;DHT22;3533;51.246;6.850;2023-02-22T01:26:03;18.90;42.70
6986;DHT22;3533;51.246;6.850;2023-02-22T01:28:31;18.90;42.70
6986;DHT22;3533;51.246;6.850;2023-02-22T01:30:56;18.90;42.70
6986;DHT22;3533;51.246;6.850;2023-02-22T01:33:22;18.90;42.70
6986;DHT22;3533;51.246;6.850;2023-02-22T01:35:48;18.90;42.70
6986;DHT22;3533;51.246;6.850;2023-02-22T01:38:15;18.90;42.70
6986;DHT22;3533;51.246;6.850;2023-02-22T01:40:42;18.90;42.70
6986;DHT22;3533;51.246;6.850;2023-02-22T01:43:29;18.90;42.70
6986;DHT22;3533;51.246;6.850;2023-02-22T01:48:38;18.90;42.70
6986;DHT22;3533;51.246;6.850;2023-02-22T01:51:12;18.90;42.80
6986;DHT22;3533;51.246;6.850;2023-02-22T01:53:44;18.90;42.80
6986;DHT22;3533;51.246;6.850;2023-02-22T01:56:11;18.90;42.80
6986;DHT22;3533;51.246;6.850;2023-02-22T01:58:40;18.90;42.80
6986;DHT22;3533;51.246;6.850;2023-02-22T02:01:07;18.90;42.80
6986;DHT22;3533;51.246;6.850;2023-02-22T02:03:35;18.90;42.80
6986;DHT22;3533;51.246;6.850;2023-02-22T02:06:05;18.90;42.80
6986;DHT22;3533;51.246;6.850;2023-02-22T02:08:36;18.90;42.80
6986;DHT22;3533;51.246;6.850;2023-02-22T02:11:05;18.90;42.80
6986;DHT22;3533;51.246;6.850;2023-02-22T02:13:32;18.90;42.80
6986;DHT22;3533;51.246;6.850;2023-02-22T02:15:57;18.90;42.80
6986;DHT22;3533;51.246;6.850;2023-02-22T02:18:24;18.90;42.80
6986;DHT22;3533;51.246;6.850;2023-02-22T02:32:19;18.80;42.70
6986;DHT22;3533;51.246;6.850;2023-02-22T02:34:57;18.90;42.90
6986;DHT22;3533;51.246;6.850;2023-02-22T02:40:24;18.80;42.80
6986;DHT22;3533;51.246;6.850;2023-02-22T02:43:06;18.90;42.90
6986;DHT22;3533;51.246;6.850;2023-02-22T02:48:27;18.90;42.90
6986;DHT22;3533;51.246;6.850;2023-02-22T02:50:55;18.80;42.70
6986;DHT22;3533;51.246;6.850;2023-02-22T02:53:26;18.80;42.70
6986;DHT22;3533;51.246;6.850;2023-02-22T02:55:54;18.80;42.80
6986;DHT22;3533;51.246;6.850;2023-02-22T02:58:21;18.80;42.80
6986;DHT22;3533;51.246;6.850;2023-02-22T03:00:50;18.80;42.80
6986;DHT22;3533;51.246;6.850;2023-02-22T03:06:15;18.80;42.70
6986;DHT22;3533;51.246;6.850;2023-02-22T03:08:56;18.80;42.80
6986;DHT22;3533;51.246;6.850;2023-02-22T03:11:52;18.80;42.80
6986;DHT22;3533;51.246;6.850;2023-02-22T03:17:25;18.80;42.80
6986;DHT22;3533;51.246;6.850;2023-02-22T03:20:04;18.80;42.80
6986;DHT22;3533;51.246;6.850;2023-02-22T03:22:41;18.80;42.90
6986;DHT22;3533;51.246;6.850;2023-02-22T03:25:45;18.80;42.90
6986;DHT22;3533;51.246;6.850;2023-02-22T03:28:16;18.80;42.90
6986;DHT22;3533;51.246;6.850;2023-02-22T03:30:53;18.80;42.90
6986;DHT22;3533;51.246;6.850;2023-02-22T03:33:39;18.80;42.80
6986;DHT22;3533;51.246;6.850;2023-02-22T03:36:13;18.80;42.80
6986;DHT22;3533;51.246;6.850;2023-02-22T03:38:41;18.80;42.90
6986;DHT22;3533;51.246;6.850;2023-02-22T03:41:09;18.80;42.90
6986;DHT22;3533;51.246;6.850;2023-02-22T03:43:39;18.80;42.90
6986;DHT22;3533;51.246;6.850;2023-02-22T03:46:08;18.80;42.90
6986;DHT22;3533;51.246;6.850;2023-02-22T03:48:47;18.80;42.80
6986;DHT22;3533;51.246;6.850;2023-02-22T03:51:16;18.80;43.00
6986;DHT22;3533;51.246;6.850;2023-02-22T03:53:42;18.80;42.90
6986;DHT22;3533;51.246;6.850;2023-02-22T03:56:17;18.80;42.90
6986;DHT22;3533;51.246;6.850;2023-02-22T03:58:45;18.80;42.90
6986;DHT22;3533;51.246;6.850;2023-02-22T04:01:15;18.80;43.00
6986;DHT22;3533;51.246;6.850;2023-02-22T04:03:41;18.80;42.90
6986;DHT22;3533;51.246;6.850;2023-02-22T04:06:07;18.80;43.00
6986;DHT22;3533;51.246;6.850;2023-02-22T04:08:33;18.80;42.90
6986;DHT22;3533;51.246;6.850;2023-02-22T04:10:59;18.80;43.00
6986;DHT22;3533;51.246;6.850;2023-02-22T04:13:26;18.80;42.90
6986;DHT22;3533;51.246;6.850;2023-02-22T04:15:52;18.80;43.00
6986;DHT22;3533;51.246;6.850;2023-02-22T04:18:17;18.80;43.10
6986;DHT22;3533;51.246;6.850;2023-02-22T04:20:43;18.80;43.00
6986;DHT22;3533;51.246;6.850;2023-02-22T04:23:09;18.80;43.00
6986;DHT22;3533;51.246;6.850;2023-02-22T04:25:35;18.80;43.00
6986;DHT22;3533;51.246;6.850;2023-02-22T04:28:00;18.80;43.00
6986;DHT22;3533;51.246;6.850;2023-02-22T04:30:26;18.80;43.00
6986;DHT22;3533;51.246;6.850;2023-02-22T04:32:55;18.80;43.00
6986;DHT22;3533;51.246;6.850;2023-02-22T04:35:21;18.80;43.00
6986;DHT22;3533;51.246;6.850;2023-02-22T04:37:46;18.80;42.90
6986;DHT22;3533;51.246;6.850;2023-02-22T04:40:12;18.80;43.00
6986;DHT22;3533;51.246;6.850;2023-02-22T04:42:38;18.80;42.90
6986;DHT22;3533;51.246;6.850;2023-02-22T04:45:06;18.80;42.90
6986;DHT22;3533;51.246;6.850;2023-02-22T04:47:33;18.80;42.80
6986;DHT22;3533;51.246;6.850;2023-02-22T04:49:58;18.80;42.90
6986;DHT22;3533;51.246;6.850;2023-02-22T04:52:25;18.80;42.80
6986;DHT22;3533;51.246;6.850;2023-02-22T04:54:51;18.90;42.90
6986;DHT22;3533;51.246;6.850;2023-02-22T04:57:16;18.90;42.90
6986;DHT22;3533;51.246;6.850;2023-02-22T04:59:42;18.90;42.90
6986;DHT22;3533;51.246;6.850;2023-02-22T05:02:07;18.90;42.80
6986;DHT22;3533;51.246;6.850;2023-02-22T05:04:33;18.90;42.80
6986;DHT22;3533;51.246;6.850;2023-02-22T05:06:58;18.90;42.80
6986;DHT22;3533;51.246;6.850;2023-02-22T05:09:24;18.90;42.70
6986;DHT22;3533;51.246;6.850;2023-02-22T05:11:49;18.90;42.70
6986;DHT22;3533;51.246;6.850;2023-02-22T05:14:15;18.90;42.70
6986;DHT22;3533;51.246;6.850;2023-02-22T05:16:41;18.90;42.60
6986;DHT22;3533;51.246;6.850;2023-02-22T05:19:06;19.00;42.70
6986;DHT22;3533;51.246;6.850;2023-02-22T05:21:32;19.00;42.60
6986;DHT22;3533;51.246;6.850;2023-02-22T05:23:58;19.00;42.50
6986;DHT22;3533;51.246;6.850;2023-02-22T05:26:23;19.00;42.50
6986;DHT22;3533;51.246;6.850;2023-02-22T05:28:49;19.00;42.60
6986;DHT22;3533;51.246;6.850;2023-02-22T05:31:14;19.00;42.50
6986;DHT22;3533;51.246;6.850;2023-02-22T05:33:41;19.00;42.50
6986;DHT22;3533;51.246;6.850;2023-02-22T05:36:07;19.10;42.60
6986;DHT22;3533;51.246;6.850;2023-02-22T05:38:34;19.10;42.60
6986;DHT22;3533;51.246;6.850;2023-02-22T05:41:00;19.00;42.50
6986;DHT22;3533;51.246;6.850;2023-02-22T05:43:26;19.00;42.50
6986;DHT22;3533;51.246;6.850;2023-02-22T05:45:51;19.00;42.50
6986;DHT22;3533;51.246;6.850;2023-02-22T05:48:17;19.00;42.50
6986;DHT22;3533;51.246;6.850;2023-02-22T05:50:42;19.00;42.50
6986;DHT22;3533;51.246;6.850;2023-02-22T05:53:08;19.00;42.60
6986;DHT22;3533;51.246;6.850;2023-02-22T05:55:34;19.00;42.60
6986;DHT22;3533;51.246;6.850;2023-02-22T05:57:59;19.00;43.20
6986;DHT22;3533;51.246;6.850;2023-02-22T06:00:28;19.00;42.60
6986;DHT22;3533;51.246;6.850;2023-02-22T06:03:05;19.00;42.60
6986;DHT22;3533;51.246;6.850;2023-02-22T06:05:32;19.00;42.60
6986;DHT22;3533;51.246;6.850;2023-02-22T06:07:58;19.00;42.60
6986;DHT22;3533;51.246;6.850;2023-02-22T06:10:24;19.00;42.60
6986;DHT22;3533;51.246;6.850;2023-02-22T06:12:50;19.00;42.60
6986;DHT22;3533;51.246;6.850;2023-02-22T06:15:16;19.00;42.60
6986;DHT22;3533;51.246;6.850;2023-02-22T06:17:43;19.00;42.60
6986;DHT22;3533;51.246;6.850;2023-02-22T06:20:11;19.00;42.60
6986;DHT22;3533;51.246;6.850;2023-02-22T06:22:37;19.00;42.70
6986;DHT22;3533;51.246;6.850;2023-02-22T06:25:06;19.00;42.60
6986;DHT22;3533;51.246;6.850;2023-02-22T06:27:33;19.00;42.60
6986;DHT22;3533;51.246;6.850;2023-02-22T06:29:59;19.00;42.60
6986;DHT22;3533;51.246;6.850;2023-02-22T06:32:25;19.00;42.60
6986;DHT22;3533;51.246;6.850;2023-02-22T06:34:51;19.00;42.70
6986;DHT22;3533;51.246;6.850;2023-02-22T06:37:16;19.10;42.70
6986;DHT22;3533;51.246;6.850;2023-02-22T06:39:42;19.10;42.70
6986;DHT22;3533;51.246;6.850;2023-02-22T06:42:07;19.10;42.60
6986;DHT22;3533;51.246;6.850;2023-02-22T06:44:33;19.10;42.60
6986;DHT22;3533;51.246;6.850;2023-02-22T06:46:58;19.00;42.70
6986;DHT22;3533;51.246;6.850;2023-02-22T06:49:25;19.10;42.70
6986;DHT22;3533;51.246;6.850;2023-02-22T06:51:52;19.00;42.60
6986;DHT22;3533;51.246;6.850;2023-02-22T06:54:18;19.10;42.70
6986;DHT22;3533;51.246;6.850;2023-02-22T06:56:44;19.00;42.70
6986;DHT22;3533;51.246;6.850;2023-02-22T06:59:09;19.10;42.70
6986;DHT22;3533;51.246;6.850;2023-02-22T07:01:35;19.00;42.70
6986;DHT22;3533;51.246;6.850;2023-02-22T07:04:01;19.00;42.70
6986;DHT22;3533;51.246;6.850;2023-02-22T07:06:26;19.00;42.60
6986;DHT22;3533;51.246;6.850;2023-02-22T07:08:52;19.00;42.70
6986;DHT22;3533;51.246;6.850;2023-02-22T07:11:19;19.00;43.40
6986;DHT22;3533;51.246;6.850;2023-02-22T07:13:44;19.00;42.70
6986;DHT22;3533;51.246;6.850;2023-02-22T07:16:10;19.00;42.70
6986;DHT22;3533;51.246;6.850;2023-02-22T07:18:35;19.00;42.70
6986;DHT22;3533;51.246;6.850;2023-02-22T07:21:01;19.00;42.60
6986;DHT22;3533;51.246;6.850;2023-02-22T07:23:26;19.00;42.70
6986;DHT22;3533;51.246;6.850;2023-02-22T07:25:52;19.00;42.70
6986;DHT22;3533;51.246;6.850;2023-02-22T07:28:17;19.00;42.70
6986;DHT22;3533;51.246;6.850;2023-02-22T07:30:43;19.00;42.70
6986;DHT22;3533;51.246;6.850;2023-02-22T07:33:10;19.00;42.70
6986;DHT22;3533;51.246;6.850;2023-02-22T07:35:37;19.00;42.70
6986;DHT22;3533;51.246;6.850;2023-02-22T07:38:07;19.00;42.70
6986;DHT22;3533;51.246;6.850;2023-02-22T07:40:34;19.00;42.80
6986;DHT22;3533;51.246;6.850;2023-02-22T07:43:08;19.00;42.70
6986;DHT22;3533;51.246;6.850;2023-02-22T07:45:37;19.00;42.70
6986;DHT22;3533;51.246;6.850;2023-02-22T07:48:04;19.00;42.80
6986;DHT22;3533;51.246;6.850;2023-02-22T07:50:31;19.00;42.70
6986;DHT22;3533;51.246;6.850;2023-02-22T07:52:59;19.00;42.70
6986;DHT22;3533;51.246;6.850;2023-02-22T07:55:28;19.00;42.70
6986;DHT22;3533;51.246;6.850;2023-02-22T07:57:56;19.00;42.80
6986;DHT22;3533;51.246;6.850;2023-02-22T08:00:30;19.00;42.80
6986;DHT22;3533;51.246;6.850;2023-02-22T08:02:57;19.00;42.70
6986;DHT22;3533;51.246;6.850;2023-02-22T08:05:24;19.00;42.80
6986;DHT22;3533;51.246;6.850;2023-02-22T08:07:50;19.00;42.80
6986;DHT22;3533;51.246;6.850;2023-02-22T08:12:42;19.00;42.80
6986;DHT22;3533;51.246;6.850;2023-02-22T08:15:14;19.00;42.70
6986;DHT22;3533;51.246;6.850;2023-02-22T08:17:40;19.00;42.70
6986;DHT22;3533;51.246;6.850;2023-02-22T08:20:05;19.00;42.70
6986;DHT22;3533;51.246;6.850;2023-02-22T08:22:31;19.00;42.80
6986;DHT22;3533;51.246;6.850;2023-02-22T08:24:57;19.00;42.80
6986;DHT22;3533;51.246;6.850;2023-02-22T08:27:27;19.00;42.80
6986;DHT22;3533;51.246;6.850;2023-02-22T08:29:53;19.00;42.80
6986;DHT22;3533;51.246;6.850;2023-02-22T08:32:19;19.00;42.70
6986;DHT22;3533;51.246;6.850;2023-02-22T08:34:45;19.00;42.80
6986;DHT22;3533;51.246;6.850;2023-02-22T08:37:11;19.00;42.80
6986;DHT22;3533;51.246;6.850;2023-02-22T08:39:37;19.00;42.80
6986;DHT22;3533;51.246;6.850;2023-02-22T08:42:02;19.00;42.80
6986;DHT22;3533;51.246;6.850;2023-02-22T08:44:28;19.00;42.90
6986;DHT22;3533;51.246;6.850;2023-02-22T08:46:53;19.00;42.80
6986;DHT22;3533;51.246;6.850;2023-02-22T08:49:20;19.00;42.80
6986;DHT22;3533;51.246;6.850;2023-02-22T08:51:45;19.00;42.80
6986;DHT22;3533;51.246;6.850;2023-02-22T08:54:11;19.00;42.80
6986;DHT22;3533;51.246;6.850;2023-02-22T08:56:37;19.00;42.80
6986;DHT22;3533;51.246;6.850;2023-02-22T08:59:02;19.00;42.80
6986;DHT22;3533;51.246;6.850;2023-02-22T09:01:28;19.00;42.90
6986;DHT22;3533;51.246;6.850;2023-02-22T09:03:54;19.00;42.90
6986;DHT22;3533;51.246;6.850;2023-02-22T09:06:21;19.00;42.80
6986;DHT22;3533;51.246;6.850;2023-02-22T09:08:47;19.00;42.80
6986;DHT22;3533;51.246;6.850;2023-02-22T09:11:13;19.00;42.90
6986;DHT22;3533;51.246;6.850;2023-02-22T09:13:38;19.00;43.20
6986;DHT22;3533;51.246;6.850;2023-02-22T09:16:04;19.00;42.90
6986;DHT22;3533;51.246;6.850;2023-02-22T09:18:30;19.00;42.90
6986;DHT22;3533;51.246;6.850;2023-02-22T09:20:55;19.00;42.80
6986;DHT22;3533;51.246;6.850;2023-02-22T09:23:21;19.00;42.80
6986;DHT22;3533;51.246;6.850;2023-02-22T09:25:47;19.00;42.80
6986;DHT22;3533;51.246;6.850;2023-02-22T09:28:13;19.00;42.90
6986;DHT22;3533;51.246;6.850;2023-02-22T09:30:39;19.00;42.90
6986;DHT22;3533;51.246;6.850;2023-02-22T09:33:13;19.00;42.90
6986;DHT22;3533;51.246;6.850;2023-02-22T09:35:41;19.00;42.90
6986;DHT22;3533;51.246;6.850;2023-02-22T09:38:07;19.10;42.90
6986;DHT22;3533;51.246;6.850;2023-02-22T09:40:36;19.00;42.90
6986;DHT22;3533;51.246;6.850;2023-02-22T09:48:30;19.10;43.00
6986;DHT22;3533;51.246;6.850;2023-02-22T09:50:59;19.00;42.90
6986;DHT22;3533;51.246;6.850;2023-02-22T09:53:33;19.10;43.00
6986;DHT22;3533;51.246;6.850;2023-02-22T09:56:04;19.10;43.00
6986;DHT22;3533;51.246;6.850;2023-02-22T09:58:44;19.10;43.00
6986;DHT22;3533;51.246;6.850;2023-02-22T10:09:22;19.10;43.00
6986;DHT22;3533;51.246;6.850;2023-02-22T10:12:07;19.10;42.90
6986;DHT22;3533;51.246;6.850;2023-02-22T10:26:35;19.10;43.00
6986;DHT22;3533;51.246;6.850;2023-02-22T10:28:52;19.10;43.00
6986;DHT22;3533;51.246;6.850;2023-02-22T10:31:24;19.10;43.00
6986;DHT22;3533;51.246;6.850;2023-02-22T10:33:59;19.10;43.00
6986;DHT22;3533;51.246;6.850;2023-02-22T10:36:26;19.10;42.90
6986;DHT22;3533;51.246;6.850;2023-02-22T10:39:00;19.10;42.90
6986;DHT22;3533;51.246;6.850;2023-02-22T10:41:32;19.10;42.90
6986;DHT22;3533;51.246;6.850;2023-02-22T10:44:00;19.10;42.90
6986;DHT22;3533;51.246;6.850;2023-02-22T10:46:28;19.10;42.80
6986;DHT22;3533;51.246;6.850;2023-02-22T10:48:59;19.10;42.90
6986;DHT22;3533;51.246;6.850;2023-02-22T10:51:26;19.10;42.90
6986;DHT22;3533;51.246;6.850;2023-02-22T10:56:47;19.10;42.90
6986;DHT22;3533;51.246;6.850;2023-02-22T10:59:29;19.10;42.90
6986;DHT22;3533;51.246;6.850;2023-02-22T11:01:56;19.10;42.80
6986;DHT22;3533;51.246;6.850;2023-02-22T11:04:22;19.10;42.80
6986;DHT22;3533;51.246;6.850;2023-02-22T11:07:12;19.10;42.80
6986;DHT22;3533;51.246;6.850;2023-02-22T11:09:46;19.20;42.90
6986;DHT22;3533;51.246;6.850;2023-02-22T11:12:18;19.10;42.80
6986;DHT22;3533;51.246;6.850;2023-02-22T11:14:44;19.20;42.90
6986;DHT22;3533;51.246;6.850;2023-02-22T11:17:12;19.20;42.90
6986;DHT22;3533;51.246;6.850;2023-02-22T11:19:45;19.20;42.90
6986;DHT22;3533;51.246;6.850;2023-02-22T11:22:18;19.20;42.80
6986;DHT22;3533;51.246;6.850;2023-02-22T11:24:52;19.20;42.90
6986;DHT22;3533;51.246;6.850;2023-02-22T11:27:40;19.20;42.80
6986;DHT22;3533;51.246;6.850;2023-02-22T11:32:44;19.20;42.90
6986;DHT22;3533;51.246;6.850;2023-02-22T11:38:00;19.20;42.80
6986;DHT22;3533;51.246;6.850;2023-02-22T11:40:33;19.20;42.80
6986;DHT22;3533;51.246;6.850;2023-02-22T11:43:07;19.20;42.80
6986;DHT22;3533;51.246;6.850;2023-02-22T11:45:37;19.20;42.80
6986;DHT22;3533;51.246;6.850;2023-02-22T11:48:05;19.20;42.80
6986;DHT22;3533;51.246;6.850;2023-02-22T11:50:57;19.20;42.80
6986;DHT22;3533;51.246;6.850;2023-02-22T12:01:55;19.20;42.80
6986;DHT22;3533;51.246;6.850;2023-02-22T12:13:02;19.20;42.80
6986;DHT22;3533;51.246;6.850;2023-02-22T12:18:23;19.20;42.80
6986;DHT22;3533;51.246;6.850;2023-02-22T12:20:54;19.20;42.80
6986;DHT22;3533;51.246;6.850;2023-02-22T12:23:53;19.30;42.90
6986;DHT22;3533;51.246;6.850;2023-02-22T12:29:05;19.20;42.80
6986;DHT22;3533;51.246;6.850;2023-02-22T12:31:46;19.20;42.80
6986;DHT22;3533;51.246;6.850;2023-02-22T12:34:36;19.30;42.90
6986;DHT22;3533;51.246;6.850;2023-02-22T12:37:17;19.20;42.70
6986;DHT22;3533;51.246;6.850;2023-02-22T12:40:15;19.30;42.90
6986;DHT22;3533;51.246;6.850;2023-02-22T12:48:19;19.20;42.80
6986;DHT22;3533;51.246;6.850;2023-02-22T12:50:54;19.20;42.80
6986;DHT22;3533;51.246;6.850;2023-02-22T12:53:32;19.30;42.90
6986;DHT22;3533;51.246;6.850;2023-02-22T12:56:19;19.30;42.90
6986;DHT22;3533;51.246;6.850;2023-02-22T12:59:10;19.20;42.80
6986;DHT22;3533;51.246;6.850;2023-02-22T13:01:42;19.30;42.80
6986;DHT22;3533;51.246;6.850;2023-02-22T13:04:09;19.30;42.90
6986;DHT22;3533;51.246;6.850;2023-02-22T13:06:40;19.30;42.90
6986;DHT22;3533;51.246;6.850;2023-02-22T13:17:47;19.30;42.90
6986;DHT22;3533;51.246;6.850;2023-02-22T13:28:32;19.20;42.70
6986;DHT22;3533;51.246;6.850;2023-02-22T13:31:03;19.30;42.90
6986;DHT22;3533;51.246;6.850;2023-02-22T13:41:24;19.30;42.80
6986;DHT22;3533;51.246;6.850;2023-02-22T13:47:22;19.20;42.80
6986;DHT22;3533;51.246;6.850;2023-02-22T13:50:14;19.20;42.80
6986;DHT22;3533;51.246;6.850;2023-02-22T13:52:44;19.30;42.90
6986;DHT22;3533;51.246;6.850;2023-02-22T13:55:20;19.30;42.90
6986;DHT22;3533;51.246;6.850;2023-02-22T13:57:48;19.30;42.90
6986;DHT22;3533;51.246;6.850;2023-02-22T14:08:03;19.30;42.90
6986;DHT22;3533;51.246;6.850;2023-02-22T14:10:54;19.30;42.90
6986;DHT22;3533;51.246;6.850;2023-02-22T14:13:27;19.30;42.90
6986;DHT22;3533;51.246;6.850;2023-02-22T14:18:38;19.30;42.90
6986;DHT22;3533;51.246;6.850;2023-02-22T14:23:39;19.30;42.90
6986;DHT22;3533;51.246;6.850;2023-02-22T14:26:30;19.30;42.90
6986;DHT22;3533;51.246;6.850;2023-02-22T14:34:39;19.30;43.00
6986;DHT22;3533;51.246;6.850;2023-02-22T14:39:47;19.30;43.00
6986;DHT22;3533;51.246;6.850;2023-02-22T14:42:30;19.30;42.90
6986;DHT22;3533;51.246;6.850;2023-02-22T14:45:23;19.30;42.90
6986;DHT22;3533;51.246;6.850;2023-02-22T14:50:57;19.30;43.00
6986;DHT22;3533;51.246;6.850;2023-02-22T14:53:40;19.30;43.00
6986;DHT22;3533;51.246;6.850;2023-02-22T14:56:16;19.30;43.00
6986;DHT22;3533;51.246;6.850;2023-02-22T14:58:57;19.30;43.00
6986;DHT22;3533;51.246;6.850;2023-02-22T15:01:34;19.30;43.00
6986;DHT22;3533;51.246;6.850;2023-02-22T15:04:21;19.20;42.90
6986;DHT22;3533;51.246;6.850;2023-02-22T15:06:48;19.20;42.90
6986;DHT22;3533;51.246;6.850;2023-02-22T15:09:29;19.30;43.00
6986;DHT22;3533;51.246;6.850;2023-02-22T15:14:28;19.30;43.00
6986;DHT22;3533;51.246;6.850;2023-02-22T15:16:58;19.30;43.10
6986;DHT22;3533;51.246;6.850;2023-02-22T15:19:30;19.30;43.00
6986;DHT22;3533;51.246;6.850;2023-02-22T15:21:57;19.20;42.90
6986;DHT22;3533;51.246;6.850;2023-02-22T15:24:26;19.20;42.90
6986;DHT22;3533;51.246;6.850;2023-02-22T15:26:54;19.30;43.00
6986;DHT22;3533;51.246;6.850;2023-02-22T15:29:26;19.20;42.90
6986;DHT22;3533;51.246;6.850;2023-02-22T15:31:54;19.30;42.90
6986;DHT22;3533;51.246;6.850;2023-02-22T15:34:26;19.20;42.90
6986;DHT22;3533;51.246;6.850;2023-02-22T15:36:55;19.30;43.00
6986;DHT22;3533;51.246;6.850;2023-02-22T15:39:30;19.30;43.00
6986;DHT22;3533;51.246;6.850;2023-02-22T15:42:16;19.20;42.90
6986;DHT22;3533;51.246;6.850;2023-02-22T15:44:50;19.30;43.00
6986;DHT22;3533;51.246;6.850;2023-02-22T15:47:26;19.30;43.00
6986;DHT22;3533;51.246;6.850;2023-02-22T15:52:52;19.30;43.00
6986;DHT22;3533;51.246;6.850;2023-02-22T15:55:21;19.20;42.90
6986;DHT22;3533;51.246;6.850;2023-02-22T15:57:48;19.30;43.00
6986;DHT22;3533;51.246;6.850;2023-02-22T16:00:26;19.30;43.00
6986;DHT22;3533;51.246;6.850;2023-02-22T16:02:58;19.20;42.90
6986;DHT22;3533;51.246;6.850;2023-02-22T16:05:49;19.30;43.00
6986;DHT22;3533;51.246;6.850;2023-02-22T16:08:19;19.30;43.00
6986;DHT22;3533;51.246;6.850;2023-02-22T16:13:27;19.30;43.00
6986;DHT22;3533;51.246;6.850;2023-02-22T16:16:05;19.30;43.00
6986;DHT22;3533;51.246;6.850;2023-02-22T16:18:48;19.30;43.00
6986;DHT22;3533;51.246;6.850;2023-02-22T16:21:17;19.20;42.90
6986;DHT22;3533;51.246;6.850;2023-02-22T16:23:49;19.30;43.00
6986;DHT22;3533;51.246;6.850;2023-02-22T16:26:27;19.30;43.00
6986;DHT22;3533;51.246;6.850;2023-02-22T16:29:00;19.30;43.10
6986;DHT22;3533;51.246;6.850;2023-02-22T16:31:37;19.20;42.90
6986;DHT22;3533;51.246;6.850;2023-02-22T16:34:05;19.30;43.00
6986;DHT22;3533;51.246;6.850;2023-02-22T16:39:16;19.30;43.00
6986;DHT22;3533;51.246;6.850;2023-02-22T16:41:43;19.30;43.00
6986;DHT22;3533;51.246;6.850;2023-02-22T16:44:11;19.30;43.00
6986;DHT22;3533;51.246;6.850;2023-02-22T16:46:37;19.30;43.00
6986;DHT22;3533;51.246;6.850;2023-02-22T16:49:03;19.30;43.00
6986;DHT22;3533;51.246;6.850;2023-02-22T16:51:34;19.20;42.90
6986;DHT22;3533;51.246;6.850;2023-02-22T16:54:04;19.30;43.00
6986;DHT22;3533;51.246;6.850;2023-02-22T16:56:30;19.30;43.10
6986;DHT22;3533;51.246;6.850;2023-02-22T16:59:07;19.30;43.00
6986;DHT22;3533;51.246;6.850;2023-02-22T17:01:33;19.30;43.00
6986;DHT22;3533;51.246;6.850;2023-02-22T17:03:58;19.30;43.00
6986;DHT22;3533;51.246;6.850;2023-02-22T17:06:25;19.30;43.00
6986;DHT22;3533;51.246;6.850;2023-02-22T17:08:50;19.30;43.00
6986;DHT22;3533;51.246;6.850;2023-02-22T17:11:17;19.30;43.10
6986;DHT22;3533;51.246;6.850;2023-02-22T17:13:43;19.30;43.00
6986;DHT22;3533;51.246;6.850;2023-02-22T17:16:13;19.30;43.00
6986;DHT22;3533;51.246;6.850;2023-02-22T17:18:38;19.30;43.00
6986;DHT22;3533;51.246;6.850;2023-02-22T17:21:04;19.30;43.00
6986;DHT22;3533;51.246;6.850;2023-02-22T17:23:30;19.30;43.00
6986;DHT22;3533;51.246;6.850;2023-02-22T17:25:57;19.30;43.00
6986;DHT22;3533;51.246;6.850;2023-02-22T17:28:24;19.30;43.00
6986;DHT22;3533;51.246;6.850;2023-02-22T17:30:51;19.30;43.00
6986;DHT22;3533;51.246;6.850;2023-02-22T17:33:22;19.30;43.00
6986;DHT22;3533;51.246;6.850;2023-02-22T17:35:52;19.30;43.00
6986;DHT22;3533;51.246;6.850;2023-02-22T17:38:17;19.30;43.00
6986;DHT22;3533;51.246;6.850;2023-02-22T17:40:45;19.30;43.00
6986;DHT22;3533;51.246;6.850;2023-02-22T17:43:13;19.30;42.90
6986;DHT22;3533;51.246;6.850;2023-02-22T17:45:40;19.30;43.00
6986;DHT22;3533;51.246;6.850;2023-02-22T17:48:07;19.30;43.00
6986;DHT22;3533;51.246;6.850;2023-02-22T17:50:36;19.30;42.90
6986;DHT22;3533;51.246;6.850;2023-02-22T17:53:01;19.30;42.90
6986;DHT22;3533;51.246;6.850;2023-02-22T17:55:28;19.30;43.00
6986;DHT22;3533;51.246;6.850;2023-02-22T17:57:55;19.30;42.90
6986;DHT22;3533;51.246;6.850;2023-02-22T18:00:23;19.30;43.00
6986;DHT22;3533;51.246;6.850;2023-02-22T18:03:02;19.30;42.90
6986;DHT22;3533;51.246;6.850;2023-02-22T18:05:28;19.30;43.00
6986;DHT22;3533;51.246;6.850;2023-02-22T18:07:54;19.30;42.90
6986;DHT22;3533;51.246;6.850;2023-02-22T18:10:20;19.30;43.70
6986;DHT22;3533;51.246;6.850;2023-02-22T18:12:46;19.30;42.90
6986;DHT22;3533;51.246;6.850;2023-02-22T18:15:14;19.30;42.90
6986;DHT22;3533;51.246;6.850;2023-02-22T18:17:44;19.30;42.90
6986;DHT22;3533;51.246;6.850;2023-02-22T18:20:10;19.30;42.90
6986;DHT22;3533;51.246;6.850;2023-02-22T18:22:38;19.40;43.00
6986;DHT22;3533;51.246;6.850;2023-02-22T18:25:07;19.30;42.90
6986;DHT22;3533;51.246;6.850;2023-02-22T18:27:33;19.30;42.90
6986;DHT22;3533;51.246;6.850;2023-02-22T18:29:58;19.40;43.00
6986;DHT22;3533;51.246;6.850;2023-02-22T18:32:24;19.40;42.80
6986;DHT22;3533;51.246;6.850;2023-02-22T18:34:57;19.40;42.70
6986;DHT22;3533;51.246;6.850;2023-02-22T18:37:23;19.40;42.70
6986;DHT22;3533;51.246;6.850;2023-02-22T18:39:53;19.40;42.70
6986;DHT22;3533;51.246;6.850;2023-02-22T18:42:23;19.50;42.70
6986;DHT22;3533;51.246;6.850;2023-02-22T18:44:50;19.40;42.60
6986;DHT22;3533;51.246;6.850;2023-02-22T18:47:16;19.50;42.80
6986;DHT22;3533;51.246;6.850;2023-02-22T18:49:42;19.50;42.80